Flight Track Log - Related Links

Times and Time Zones

All times are in EDT time to prevent confusion due to time zone crossing. See the RPA5351 flight status page for this flight to view local times or setup timezone preferences in your user account.

Time Position Orientation Groundspeed Altitude Reporting Facility
EDT Latitude Longitude Course Direction KTS MPH feet Rate Location/Type
Thu 10:46:16 AM 35.3428 -77.6800 307° West 186 214 2,600  Level Washington Center
Thu 10:47:17 AM 35.4117 -77.6819 359° North 194 223 4,600 2,400 Climbing Washington Center
Thu 10:48:16 AM 35.4931 -77.6864 357° North 242 278 7,400 2,824 Climbing Washington Center
Thu 10:49:16 AM 35.5544 -77.7569 317° Northwest 270 311 10,200 2,500 Climbing Washington Center
Thu 10:52:16 AM 35.6583 -78.0947 269° West 352 405 17,400 2,365 Climbing Washington Center
Thu 10:53:17 AM 35.6975 -78.2136 292° West 365 420 19,700 2,361 Climbing Washington Center
Thu 10:54:18 AM 35.7383 -78.3481 291° West 378 435 22,200 2,033 Climbing Washington Center
Thu 10:55:18 AM 35.7772 -78.4697 292° West 383 441 23,800 1,729 Climbing Washington Center
Thu 10:56:16 AM 35.8158 -78.5992 290° West 394 453 25,600 1,563 Climbing Washington Center
Thu 10:57:17 AM 35.8561 -78.7314 291° West 394 453 26,900 1,279 Climbing Washington Center
Thu 10:58:18 AM 35.8839 -78.8658 284° West 405 466 28,200 1,200 Climbing Washington Center
Thu 11:00:17 AM 35.9278 -79.1575 281° West 430 495 30,500 1,095 Climbing Washington Center
Thu 11:02:41 AM 35.9739 -79.4844 278° West 448 516 33,000 1,059 Climbing Atlanta Center
Thu 11:03:41 AM 35.9939 -79.6322 280° West 448 516 34,100 1,300 Climbing Atlanta Center
Thu 11:04:41 AM 36.0133 -79.7750 280° West 441 507 35,600 950 Climbing Atlanta Center
Thu 11:05:41 AM 36.0347 -79.9125 281° West 431 496 36,000 200 Climbing Atlanta Center
Thu 11:06:41 AM 36.0061 -80.0525 256° West 410 472 36,000  Level Atlanta Center
Thu 11:07:41 AM 35.9453 -80.1708 238° Southwest 400 460 36,000  Level Atlanta Center
Thu 11:08:41 AM 35.8783 -80.2997 237° Southwest 412 474 36,000  Level Atlanta Center
Thu 11:09:41 AM 35.8192 -80.4175 238° Southwest 412 474 36,000  Level Atlanta Center
Thu 11:10:41 AM 35.7581 -80.5381 238° Southwest 412 474 36,000  Level Atlanta Center
Thu 11:11:41 AM 35.6986 -80.6531 238° Southwest 417 480 36,000  Level Atlanta Center
Thu 11:12:41 AM 35.6431 -80.7603 238° Southwest 422 486 36,000  Level Atlanta Center
Thu 11:13:41 AM 35.5817 -80.8775 237° Southwest 422 486 36,000  Level Atlanta Center
Thu 11:14:41 AM 35.5200 -80.9947 237° Southwest 422 486 36,000  Level Atlanta Center
Thu 11:15:41 AM 35.4539 -81.1169 236° Southwest 422 486 36,000  Level Atlanta Center
Thu 11:16:41 AM 35.3922 -81.2414 239° Southwest 427 491 36,000  Level Atlanta Center
Thu 11:17:41 AM 35.3303 -81.3658 239° Southwest 427 491 36,000  Level Atlanta Center
Thu 11:18:41 AM 35.2681 -81.4822 237° Southwest 420 483 36,000  Level Atlanta Center
Thu 11:19:41 AM 35.2081 -81.6011 238° Southwest 420 483 36,000  Level Atlanta Center
Thu 11:21:41 AM 35.0811 -81.8408 236° Southwest 420 483 36,000  Level Atlanta Center
Thu 11:23:41 AM 35.0314 -82.1111 266° West 405 466 36,000  Level Atlanta Center
Thu 11:24:41 AM 35.0294 -82.2658 269° West 417 480 36,000  Level Atlanta Center
Thu 11:25:41 AM 35.0272 -82.4078 269° West 417 480 36,000  Level Atlanta Center
Thu 11:26:41 AM 35.0269 -82.5472 270° West 417 480 36,000  Level Atlanta Center
Thu 11:27:41 AM 35.0244 -82.6844 269° West 419 482 36,000  Level Atlanta Center
Thu 11:29:41 AM 35.0208 -82.9508 268° West 419 482 36,000  Level Atlanta Center
Thu 11:30:41 AM 35.0178 -83.0928 269° West 419 482 36,000  Level Atlanta Center
Thu 11:32:23 AM 35.0125 -83.3406 269° West 392 451 36,000  Level Memphis Center
Thu 11:33:25 AM 35.0092 -83.4786 268° West 406 467 36,000  Level Memphis Center
Thu 11:34:27 AM 35.0067 -83.6164 269° West 406 467 36,000  Level Memphis Center
Thu 11:35:41 AM 35.0022 -83.7828 268° West 414 476 36,000  Level Atlanta Center
Thu 11:36:41 AM 34.9983 -83.9169 268° West 414 476 36,000  Level Atlanta Center
Thu 11:37:41 AM 34.9942 -84.0564 268° West 409 471 36,000  Level Atlanta Center
Thu 11:38:41 AM 34.9900 -84.2036 268° West 403 464 36,000  Level Atlanta Center
Thu 11:39:41 AM 34.9878 -84.3406 269° West 403 464 36,000  Level Atlanta Center
Thu 11:40:41 AM 34.9831 -84.4772 268° West 403 464 36,000  Level Atlanta Center
Thu 11:42:44 AM 34.9753 -84.7417 268° West 404 465 36,000  Level Memphis Center
Thu 11:43:46 AM 34.9708 -84.8792 268° West 404 465 36,000  Level Memphis Center
Thu 11:44:41 AM 34.9653 -85.0247 267° West 403 464 36,000  Level Atlanta Center
Thu 11:45:41 AM 34.9619 -85.1617 268° West 403 464 36,000  Level Atlanta Center
Thu 11:46:41 AM 34.9650 -85.2958 272° West 403 464 36,000  Level Atlanta Center
Thu 11:47:41 AM 34.9675 -85.4353 271° West 403 464 36,000  Level Atlanta Center
Thu 11:48:41 AM 34.9722 -85.5672 273° West 403 464 36,000  Level Atlanta Center
Thu 11:49:41 AM 34.9789 -85.7042 273° West 403 464 36,000  Level Atlanta Center
Thu 11:50:41 AM 34.9789 -85.8411 270° West 403 464 36,000  Level Atlanta Center
Thu 11:51:41 AM 34.9831 -85.9781 272° West 403 464 36,000  Level Atlanta Center
Thu 11:52:41 AM 34.9872 -86.1100 272° West 403 464 36,000  Level Atlanta Center
Thu 11:54:07 AM 34.9914 -86.3056 272° West 403 464 36,000  Level Memphis Center
Thu 11:55:09 AM 34.9944 -86.4406 272° West 403 464 36,000  Level Memphis Center
Thu 11:56:11 AM 34.9969 -86.5786 271° West 404 465 36,000  Level Memphis Center
Thu 11:58:15 AM 35.0014 -86.8500 271° West 402 463 36,000  Level Memphis Center
Thu 11:59:17 AM 35.0039 -86.9872 271° West 403 464 36,000  Level Memphis Center
Thu 12:00:19 PM 35.0058 -87.1519 271° West 404 465 36,000 -387 Level Memphis Center
Thu 12:01:21 PM 35.0083 -87.2878 271° West 404 465 35,200 -642 Descending Memphis Center
Thu 12:03:26 PM 35.0125 -87.5789 271° West 404 465 34,000 -385 Descending Memphis Center
Thu 12:04:28 PM 35.0142 -87.6961 271° West 404 465 34,000 -871 Level Memphis Center
Thu 12:05:30 PM 35.0147 -87.8583 270° West 404 465 32,200 -1,645 Descending Memphis Center
Thu 12:07:34 PM 34.9969 -88.1256 264° West 401 461 28,900 -1,581 Descending Memphis Center
Thu 12:08:36 PM 34.9792 -88.2533 260° West 391 450 27,300 -1,500 Descending Memphis Center
Thu 12:09:38 PM 34.9636 -88.3794 261° West 382 440 25,800 -1,645 Descending Memphis Center
Thu 12:10:40 PM 34.9442 -88.5253 261° West 382 440 23,900 -2,129 Descending Memphis Center
Thu 12:11:42 PM 34.9272 -88.6497 261° West 380 437 21,400 -2,548 Descending Memphis Center
Thu 12:13:46 PM 34.8933 -88.8981 259° West 376 433 16,000 -2,742 Descending Memphis Center
Thu 12:14:48 PM 34.8733 -89.0361 260° West 352 405 12,900 -2,613 Descending Memphis Center
Thu 12:15:50 PM 34.8586 -89.1422 260° West 328 377 10,600 -1,403 Descending Memphis Center
Thu 12:16:52 PM 34.8453 -89.2447 261° West 313 360 10,000 -642 Descending Memphis Center
Thu 12:18:57 PM 34.8139 -89.4414 259° West 277 319 8,600 -1,277 Descending Memphis Center
Thu 12:21:01 PM 34.7136 -89.5739 255° West 271 312 4,700 -1,806 Descending Memphis Center
Thu 12:22:03 PM 34.6631 -89.6592 234° Southwest 271 312 3,000 -823 Descending Memphis Center
Thu 12:23:05 PM 34.6464 -89.7475 257° West 269 310 3,000  Level Memphis Center
Thu 12:24:07 PM 34.6194 -89.8325 249° West 269 310 3,000  Level Memphis Center
Thu 12:25:09 PM 34.5911 -89.9161 248° West 269 310 3,000  Level Memphis Center
Thu 12:26:11 PM 34.5928 -90.0039 271° West 264 304 3,000  Level Memphis Center
Thu 12:27:13 PM 34.5978 -90.0922 274° West 263 303 3,000 -48 Level Memphis Center
Thu 12:28:15 PM 34.5969 -90.1989 269° West 263 303 2,900 -355 Descending Memphis Center
Thu 12:30:19 PM 34.6056 -90.3381 274° West 233 268 1,900 -484 Descending Memphis Center

Login

Don't have an account? Register now (free) for customized features, flight alerts, and more!